Oslo Bulk 1 — 9V8766 — position and weather

sailwx.info

Track history (hours):
 
Tides and Currents Weather Stations Pressure Air Temp Water Temp Dewpoint Dewpoint Depression Visibility Wind Speed Wind Dir Waves Ship Positions

Oslo Bulk 1

Last reported at 2015-Jan-28 13:30 UTC. Time now 2015-Jan-29 00:22 UTC.
Position S 39°12' E 143°22'.

Length 108 m; draft 5.7 m.

Type: Ship. MMSI: 564010000.

Date/timePositionNaut miles runAvg speedWind from/ knotsBaromVisibWave heightAir tempDewpointWater temp
2015-Jan-28 13:30S 39°12' E 143°22'44 8.6
2015-Jan-28 08:19S 39°03' E 142°26'7 8.6
2015-Jan-28 07:29S 39°02' E 142°17'16 8.3
2015-Jan-28 05:33S 38°59' E 141°56'9 8.0
2015-Jan-28 04:27S 38°58' E 141°45'8 7.8
2015-Jan-28 03:29S 38°56' E 141°36'  
2015-Jan-21 18:28S 32°30' E 115°06'22 7.3
2015-Jan-21 15:27S 32°09' E 115°14'9 7.5
2015-Jan-21 14:16S 32°01' E 115°18'6 7.4
2015-Jan-21 13:31S 31°57' E 115°23'8 8.7
2015-Jan-21 12:33S 31°56' E 115°33'9 9.2
2015-Jan-21 11:33S 32°02' E 115°41'10 9.8
2015-Jan-21 10:34S 32°11' E 115°44'4 3.3
2015-Jan-21 09:31S 32°14' E 115°45'0 0.0
2015-Jan-21 08:34S 32°14' E 115°45'0 0.0
2015-Jan-21 07:31S 32°14' E 115°45'0 0.0
2015-Jan-21 06:33S 32°14' E 115°45'0 0.0
2015-Jan-21 05:34S 32°14' E 115°45'0 0.0
2015-Jan-21 04:34S 32°14' E 115°45'0 0.0
2015-Jan-21 03:34S 32°14' E 115°45'0 0.0
2015-Jan-21 02:33S 32°14' E 115°45'0 0.0
2015-Jan-21 01:33S 32°14' E 115°45'0 0.0
2015-Jan-21 00:30S 32°14' E 115°45'0 0.0
2015-Jan-20 23:33S 32°14' E 115°45'0 0.0
2015-Jan-20 22:33S 32°14' E 115°45'0 0.0
2015-Jan-20 21:33S 32°14' E 115°45'0 0.0
2015-Jan-20 20:34S 32°14' E 115°45'0 0.0
2015-Jan-20 19:34S 32°14' E 115°45'0 0.0
2015-Jan-20 18:33S 32°14' E 115°45'0 0.0
2015-Jan-20 17:33S 32°14' E 115°45'0 0.0
2015-Jan-20 16:34S 32°14' E 115°45'0 0.0
2015-Jan-20 15:30S 32°14' E 115°45'0 0.0
2015-Jan-20 14:30S 32°14' E 115°45'0 0.0
2015-Jan-20 13:33S 32°14' E 115°45'0 0.0
2015-Jan-20 12:33S 32°14' E 115°45'0 0.0
2015-Jan-20 11:33S 32°14' E 115°45'0 0.0
2015-Jan-20 10:33S 32°14' E 115°45'0 0.0
2015-Jan-20 09:33S 32°14' E 115°45'0 0.0
2015-Jan-20 08:33S 32°14' E 115°45'0 0.0
2015-Jan-20 07:33S 32°14' E 115°45'0 0.0
2015-Jan-20 06:33S 32°14' E 115°45'0 0.0
2015-Jan-20 05:30S 32°14' E 115°45'0 0.0
2015-Jan-20 04:33S 32°14' E 115°45'0 0.0
2015-Jan-20 03:27S 32°14' E 115°45'0 0.0
2015-Jan-20 02:27S 32°14' E 115°45'0 0.0
2015-Jan-20 01:25S 32°14' E 115°45'0 0.0
2015-Jan-20 00:33S 32°14' E 115°45'0 0.0
2015-Jan-19 23:30S 32°14' E 115°45'0 0.0
2015-Jan-19 22:33S 32°14' E 115°45'0 0.0
2015-Jan-19 21:33S 32°14' E 115°45'0 0.0
2015-Jan-19 20:33S 32°14' E 115°45'0 0.0
2015-Jan-19 19:33S 32°14' E 115°45'0 0.0
2015-Jan-19 18:33S 32°14' E 115°45'0 0.0
2015-Jan-19 17:33S 32°14' E 115°45'0 0.0
2015-Jan-19 16:33S 32°14' E 115°45'0 0.0
2015-Jan-19 15:33S 32°14' E 115°45'0 0.0
2015-Jan-19 14:33S 32°14' E 115°45'0 0.0
2015-Jan-19 13:33S 32°14' E 115°45'0 0.0
2015-Jan-19 12:33S 32°14' E 115°45'0 0.0
2015-Jan-19 11:33S 32°14' E 115°45'0 0.0
2015-Jan-19 10:33S 32°14' E 115°45'0 0.0
2015-Jan-19 09:33S 32°14' E 115°45'0 0.0
2015-Jan-19 08:33S 32°14' E 115°45'0 0.0
2015-Jan-19 07:33S 32°14' E 115°45'0 0.0
2015-Jan-19 06:33S 32°14' E 115°45'0 0.0
2015-Jan-19 05:33S 32°14' E 115°45'0 0.0
2015-Jan-19 04:33S 32°14' E 115°45'0 0.1
2015-Jan-19 03:33S 32°14' E 115°45'9 9.2
2015-Jan-19 02:34S 32°06' E 115°42'6 5.7
2015-Jan-19 01:34S 31°60' E 115°41'6 5.8
2015-Jan-19 00:34S 31°56' E 115°37'9 6.3
2015-Jan-18 23:09S 31°52' E 115°27'6010.4
2015-Jan-18 17:22S 31°03' E 114°46'1211.1
2015-Jan-18 16:19S 30°53' E 114°39'1210.6
2015-Jan-18 15:10S 30°43' E 114°32'  
Track history (hours):
 
Tides and Currents Weather Stations Pressure Air Temp Water Temp Dewpoint Dewpoint Depression Visibility Wind Speed Wind Dir Waves Ship Positions

Oslo Bulk 1

Last reported at 2015-Jan-28 13:30 UTC. Time now 2015-Jan-29 00:22 UTC.
Position S 39°12' E 143°22'.

Length 108 m; draft 5.7 m.

Type: Ship. MMSI: 564010000.

Date/timePositionNaut miles runAvg speedWind from/ knotsBaromVisibWave heightAir tempDewpointWater temp
2015-Jan-28 13:30S 39°12' E 143°22'44 8.6
2015-Jan-28 08:19S 39°03' E 142°26'7 8.6
2015-Jan-28 07:29S 39°02' E 142°17'16 8.3
2015-Jan-28 05:33S 38°59' E 141°56'9 8.0
2015-Jan-28 04:27S 38°58' E 141°45'8 7.8
2015-Jan-28 03:29S 38°56' E 141°36'  
2015-Jan-21 18:28S 32°30' E 115°06'22 7.3
2015-Jan-21 15:27S 32°09' E 115°14'9 7.5
2015-Jan-21 14:16S 32°01' E 115°18'6 7.4
2015-Jan-21 13:31S 31°57' E 115°23'8 8.7
2015-Jan-21 12:33S 31°56' E 115°33'9 9.2
2015-Jan-21 11:33S 32°02' E 115°41'10 9.8
2015-Jan-21 10:34S 32°11' E 115°44'4 3.3
2015-Jan-21 09:31S 32°14' E 115°45'0 0.0
2015-Jan-21 08:34S 32°14' E 115°45'0 0.0
2015-Jan-21 07:31S 32°14' E 115°45'0 0.0
2015-Jan-21 06:33S 32°14' E 115°45'0 0.0
2015-Jan-21 05:34S 32°14' E 115°45'0 0.0
2015-Jan-21 04:34S 32°14' E 115°45'0 0.0
2015-Jan-21 03:34S 32°14' E 115°45'0 0.0
2015-Jan-21 02:33S 32°14' E 115°45'0 0.0
2015-Jan-21 01:33S 32°14' E 115°45'0 0.0
2015-Jan-21 00:30S 32°14' E 115°45'0 0.0
2015-Jan-20 23:33S 32°14' E 115°45'0 0.0
2015-Jan-20 22:33S 32°14' E 115°45'0 0.0
2015-Jan-20 21:33S 32°14' E 115°45'0 0.0
2015-Jan-20 20:34S 32°14' E 115°45'0 0.0
2015-Jan-20 19:34S 32°14' E 115°45'0 0.0
2015-Jan-20 18:33S 32°14' E 115°45'0 0.0
2015-Jan-20 17:33S 32°14' E 115°45'0 0.0
2015-Jan-20 16:34S 32°14' E 115°45'0 0.0
2015-Jan-20 15:30S 32°14' E 115°45'0 0.0
2015-Jan-20 14:30S 32°14' E 115°45'0 0.0
2015-Jan-20 13:33S 32°14' E 115°45'0 0.0
2015-Jan-20 12:33S 32°14' E 115°45'0 0.0
2015-Jan-20 11:33S 32°14' E 115°45'0 0.0
2015-Jan-20 10:33S 32°14' E 115°45'0 0.0
2015-Jan-20 09:33S 32°14' E 115°45'0 0.0
2015-Jan-20 08:33S 32°14' E 115°45'0 0.0
2015-Jan-20 07:33S 32°14' E 115°45'0 0.0
2015-Jan-20 06:33S 32°14' E 115°45'0 0.0
2015-Jan-20 05:30S 32°14' E 115°45'0 0.0
2015-Jan-20 04:33S 32°14' E 115°45'0 0.0
2015-Jan-20 03:27S 32°14' E 115°45'0 0.0
2015-Jan-20 02:27S 32°14' E 115°45'0 0.0
2015-Jan-20 01:25S 32°14' E 115°45'0 0.0
2015-Jan-20 00:33S 32°14' E 115°45'0 0.0
2015-Jan-19 23:30S 32°14' E 115°45'0 0.0
2015-Jan-19 22:33S 32°14' E 115°45'0 0.0
2015-Jan-19 21:33S 32°14' E 115°45'0 0.0
2015-Jan-19 20:33S 32°14' E 115°45'0 0.0
2015-Jan-19 19:33S 32°14' E 115°45'0 0.0
2015-Jan-19 18:33S 32°14' E 115°45'0 0.0
2015-Jan-19 17:33S 32°14' E 115°45'0 0.0
2015-Jan-19 16:33S 32°14' E 115°45'0 0.0
2015-Jan-19 15:33S 32°14' E 115°45'0 0.0
2015-Jan-19 14:33S 32°14' E 115°45'0 0.0
2015-Jan-19 13:33S 32°14' E 115°45'0 0.0
2015-Jan-19 12:33S 32°14' E 115°45'0 0.0
2015-Jan-19 11:33S 32°14' E 115°45'0 0.0
2015-Jan-19 10:33S 32°14' E 115°45'0 0.0
2015-Jan-19 09:33S 32°14' E 115°45'0 0.0
2015-Jan-19 08:33S 32°14' E 115°45'0 0.0
2015-Jan-19 07:33S 32°14' E 115°45'0 0.0
2015-Jan-19 06:33S 32°14' E 115°45'0 0.0
2015-Jan-19 05:33S 32°14' E 115°45'0 0.0
2015-Jan-19 04:33S 32°14' E 115°45'0 0.1
2015-Jan-19 03:33S 32°14' E 115°45'9 9.2
2015-Jan-19 02:34S 32°06' E 115°42'6 5.7
2015-Jan-19 01:34S 31°60' E 115°41'6 5.8
2015-Jan-19 00:34S 31°56' E 115°37'9 6.3
2015-Jan-18 23:09S 31°52' E 115°27'6010.4
2015-Jan-18 17:22S 31°03' E 114°46'1211.1
2015-Jan-18 16:19S 30°53' E 114°39'1210.6
2015-Jan-18 15:10S 30°43' E 114°32'  

Dump ship's entire track history